Time;durP1;ratioP1;P1;durP2;ratioP2;P2;SDS_P1;SDS_P2;PMS_P1;PMS_P2;Temp;Humidity;BMP_temperature;BMP_pressure;BME280_temperature;BME280_humidity;BME280_pressure;Samples;Min_cycle;Max_cycle;Signal;HPM_P1;HPM_P2
2022/03/04 00:00:55;;;;;;;27.27;3.90;;;;;;;;;;5038912;28;20489;-63
2022/03/04 00:03:21;;;;;;;33.25;5.80;;;;;;;;;;5052359;28;20500;-64
2022/03/04 00:05:48;;;;;;;19.33;3.80;;;;;;;;;;5048088;28;20049;-64
2022/03/04 00:08:14;;;;;;;24.90;3.63;;;;;;;;;;5032498;28;20525;-64
2022/03/04 00:10:40;;;;;;;16.88;2.92;;;;;;;;;;5032057;28;20030;-64
2022/03/04 00:13:06;;;;;;;24.85;4.35;;;;;;;;;;5032060;28;20052;-64
2022/03/04 00:15:34;;;;;;;19.35;2.67;;;;;;;;;;5032352;28;20034;-64
2022/03/04 00:18:00;;;;;;;18.77;2.90;;;;;;;;;;5036786;28;20497;-64
2022/03/04 00:20:26;;;;;;;15.15;4.60;;;;;;;;;;5052237;28;20350;-64
2022/03/04 00:22:52;;;;;;;16.63;3.67;;;;;;;;;;5051883;28;20033;-64
2022/03/04 00:25:19;;;;;;;19.55;3.03;;;;;;;;;;5052110;28;20049;-64
2022/03/04 00:27:46;;;;;;;14.70;3.60;;;;;;;;;;5032617;28;20028;-64
2022/03/04 00:30:12;;;;;;;14.70;3.25;;;;;;;;;;5048683;28;20112;-64
2022/03/04 00:32:39;;;;;;;19.95;4.15;;;;;;;;;;5051757;28;20367;-64
2022/03/04 00:35:06;;;;;;;21.65;3.20;;;;;;;;;;5038165;28;20378;-64
2022/03/04 00:37:32;;;;;;;16.23;2.92;;;;;;;;;;5050007;28;20098;-64
2022/03/04 00:39:58;;;;;;;14.45;2.88;;;;;;;;;;5051567;28;20025;-64
2022/03/04 00:42:27;;;;;;;15.13;2.90;;;;;;;;;;5051665;28;20108;-64
2022/03/04 00:44:53;;;;;;;27.33;3.40;;;;;;;;;;5051814;28;20044;-63
2022/03/04 00:47:19;;;;;;;24.73;3.45;;;;;;;;;;5051611;28;20033;-63
2022/03/04 00:49:45;;;;;;;23.67;4.65;;;;;;;;;;5031923;28;20482;-64
2022/03/04 00:52:12;;;;;;;19.55;2.85;;;;;;;;;;5049895;28;20036;-64
2022/03/04 00:54:38;;;;;;;28.33;3.70;;;;;;;;;;5051548;28;20025;-64
2022/03/04 00:57:04;;;;;;;21.35;3.30;;;;;;;;;;5050359;28;20120;-64
2022/03/04 00:59:30;;;;;;;18.42;3.05;;;;;;;;;;5051879;28;20013;-63
2022/03/04 01:01:56;;;;;;;18.23;3.05;;;;;;;;;;5036312;28;20083;-64
2022/03/04 01:04:22;;;;;;;24.08;3.67;;;;;;;;;;5046477;28;20025;-63
2022/03/04 01:06:48;;;;;;;17.10;3.15;;;;;;;;;;5051583;28;20047;-63
2022/03/04 01:09:15;;;;;;;31.08;4.65;;;;;;;;;;5050278;28;20028;-64
2022/03/04 01:11:41;;;;;;;19.45;3.38;;;;;;;;;;5036217;28;20608;-64
2022/03/04 01:14:07;;;;;;;26.25;3.10;;;;;;;;;;5033490;28;20124;-64
2022/03/04 01:16:34;;;;;;;21.65;3.58;;;;;;;;;;5035611;28;20069;-64
2022/03/04 01:19:01;;;;;;;20.70;4.00;;;;;;;;;;5046328;28;20401;-63
2022/03/04 01:21:27;;;;;;;18.50;3.22;;;;;;;;;;5037697;28;20021;-64
2022/03/04 01:23:54;;;;;;;26.23;5.30;;;;;;;;;;5034783;28;20063;-64
2022/03/04 01:26:20;;;;;;;18.38;4.55;;;;;;;;;;5035318;28;20029;-64
2022/03/04 01:28:46;;;;;;;23.40;4.22;;;;;;;;;;5040052;28;20068;-64
2022/03/04 01:31:14;;;;;;;18.20;3.20;;;;;;;;;;5055294;28;20094;-64
2022/03/04 01:33:41;;;;;;;18.52;3.03;;;;;;;;;;5043260;28;20106;-64
2022/03/04 01:36:07;;;;;;;32.63;3.65;;;;;;;;;;5034777;28;20026;-64
2022/03/04 01:38:33;;;;;;;28.05;3.08;;;;;;;;;;5035168;28;20398;-64
2022/03/04 01:40:59;;;;;;;20.02;3.00;;;;;;;;;;5034763;28;20385;-63
2022/03/04 01:43:25;;;;;;;28.17;3.85;;;;;;;;;;5035257;28;20030;-64
2022/03/04 01:45:52;;;;;;;26.25;3.05;;;;;;;;;;5034795;28;20405;-63
2022/03/04 01:48:20;;;;;;;24.92;3.92;;;;;;;;;;5035058;28;20163;-64
2022/03/04 01:50:49;;;;;;;14.63;3.03;;;;;;;;;;5034807;28;20083;-64
2022/03/04 01:53:16;;;;;;;22.40;4.07;;;;;;;;;;5040837;28;20029;-63
2022/03/04 01:55:42;;;;;;;15.90;3.28;;;;;;;;;;5052741;28;20021;-64
2022/03/04 01:58:09;;;;;;;18.48;3.30;;;;;;;;;;5048104;28;20047;-64
2022/03/04 02:00:35;;;;;;;17.13;3.30;;;;;;;;;;5050600;28;20052;-64
2022/03/04 02:03:01;;;;;;;24.23;4.90;;;;;;;;;;5053597;28;20037;-63
2022/03/04 02:05:27;;;;;;;19.65;3.35;;;;;;;;;;5052670;28;20017;-64
2022/03/04 02:07:54;;;;;;;18.35;3.15;;;;;;;;;;5052543;28;20028;-64
2022/03/04 02:10:20;;;;;;;17.48;2.97;;;;;;;;;;5040606;28;20025;-64
2022/03/04 02:12:46;;;;;;;18.80;3.08;;;;;;;;;;5034169;28;20128;-63
2022/03/04 02:15:14;;;;;;;18.02;3.92;;;;;;;;;;5034218;28;20072;-64
2022/03/04 02:17:40;;;;;;;20.55;3.47;;;;;;;;;;5038313;28;20036;-64
2022/03/04 02:20:07;;;;;;;26.73;3.30;;;;;;;;;;5033580;28;20034;-64
2022/03/04 02:22:33;;;;;;;18.65;2.95;;;;;;;;;;5038198;28;20471;-63
2022/03/04 02:25:00;;;;;;;31.02;5.45;;;;;;;;;;5033794;28;20025;-64
2022/03/04 02:27:26;;;;;;;19.00;3.05;;;;;;;;;;5034293;28;20022;-64
2022/03/04 02:29:53;;;;;;;18.05;3.05;;;;;;;;;;5050171;28;20056;-64
2022/03/04 02:32:19;;;;;;;21.85;3.50;;;;;;;;;;5054138;28;20064;-63
2022/03/04 02:34:46;;;;;;;22.90;3.53;;;;;;;;;;5053744;28;20028;-64
2022/03/04 02:37:13;;;;;;;11.00;2.65;;;;;;;;;;5049694;28;20056;-64
2022/03/04 02:39:39;;;;;;;27.35;4.43;;;;;;;;;;5033672;28;20068;-64
2022/03/04 02:42:05;;;;;;;17.95;2.78;;;;;;;;;;5033660;28;20037;-64
2022/03/04 02:44:31;;;;;;;21.80;3.33;;;;;;;;;;5033987;28;20036;-64
2022/03/04 02:46:57;;;;;;;17.65;2.92;;;;;;;;;;5032579;28;20021;-64
2022/03/04 02:49:23;;;;;;;16.85;3.35;;;;;;;;;;5033547;28;20060;-64
2022/03/04 02:51:50;;;;;;;20.65;3.53;;;;;;;;;;5033702;28;20496;-64
2022/03/04 02:54:16;;;;;;;26.75;3.28;;;;;;;;;;5033430;28;20131;-64
2022/03/04 02:56:42;;;;;;;14.60;2.60;;;;;;;;;;5033879;28;20033;-64
2022/03/04 02:59:08;;;;;;;23.15;3.53;;;;;;;;;;5032161;28;20386;-64
2022/03/04 03:01:34;;;;;;;16.33;3.75;;;;;;;;;;5042351;28;20037;-64
2022/03/04 03:04:00;;;;;;;18.65;3.53;;;;;;;;;;5034015;28;20033;-64
2022/03/04 03:06:27;;;;;;;20.63;3.08;;;;;;;;;;5033299;28;20056;-64
2022/03/04 03:08:53;;;;;;;23.27;3.97;;;;;;;;;;5033392;28;20104;-64
2022/03/04 03:11:19;;;;;;;21.15;3.35;;;;;;;;;;5037138;28;20116;-64
2022/03/04 03:13:45;;;;;;;20.75;3.95;;;;;;;;;;5053312;28;20032;-64
2022/03/04 03:16:11;;;;;;;28.27;3.33;;;;;;;;;;5053060;28;20079;-63
2022/03/04 03:18:37;;;;;;;22.30;3.35;;;;;;;;;;5052897;28;20029;-64
2022/03/04 03:21:04;;;;;;;22.60;3.30;;;;;;;;;;5052715;28;20035;-64
2022/03/04 03:23:30;;;;;;;22.92;3.28;;;;;;;;;;5052924;28;20503;-64
2022/03/04 03:25:56;;;;;;;16.77;3.35;;;;;;;;;;5032030;28;20378;-64
2022/03/04 03:28:22;;;;;;;20.20;3.67;;;;;;;;;;5034446;28;20026;-64
2022/03/04 03:30:48;;;;;;;24.52;3.50;;;;;;;;;;5035244;28;20022;-63
2022/03/04 03:33:14;;;;;;;22.58;4.18;;;;;;;;;;5032521;28;20124;-64
2022/03/04 03:35:40;;;;;;;16.38;2.95;;;;;;;;;;5032486;28;20095;-63
2022/03/04 03:38:07;;;;;;;24.35;3.65;;;;;;;;;;5032444;28;20148;-64
2022/03/04 03:40:33;;;;;;;26.13;4.18;;;;;;;;;;5032936;28;20021;-64
2022/03/04 03:42:59;;;;;;;21.38;4.45;;;;;;;;;;5050114;28;20037;-64
2022/03/04 03:45:26;;;;;;;21.98;3.75;;;;;;;;;;5052631;28;20032;-63
2022/03/04 03:47:53;;;;;;;17.90;4.05;;;;;;;;;;5052347;28;20143;-63
2022/03/04 03:50:20;;;;;;;26.17;3.67;;;;;;;;;;5050056;28;20508;-63
2022/03/04 03:52:46;;;;;;;23.65;5.28;;;;;;;;;;5033852;28;20067;-64
2022/03/04 03:55:12;;;;;;;28.27;5.20;;;;;;;;;;5045700;28;20111;-64
2022/03/04 03:57:38;;;;;;;25.63;3.72;;;;;;;;;;5035647;28;20113;-63
2022/03/04 04:00:05;;;;;;;27.88;3.85;;;;;;;;;;5031909;28;20033;-64
2022/03/04 04:02:38;;;;;;;25.95;3.25;;;;;;;;;;5049760;28;20037;-64
2022/03/04 04:05:05;;;;;;;23.23;3.63;;;;;;;;;;5047751;28;20021;-64
2022/03/04 04:07:31;;;;;;;31.23;3.25;;;;;;;;;;5032336;28;20083;-64
2022/03/04 04:09:57;;;;;;;21.13;3.97;;;;;;;;;;5032391;28;20029;-63
2022/03/04 04:12:23;;;;;;;23.92;3.60;;;;;;;;;;5042555;28;20561;-64
2022/03/04 04:14:50;;;;;;;25.30;3.95;;;;;;;;;;5032356;28;20097;-64
2022/03/04 04:17:16;;;;;;;25.35;3.33;;;;;;;;;;5031947;28;20481;-64
2022/03/04 04:19:42;;;;;;;30.50;3.65;;;;;;;;;;5034552;28;20032;-64
2022/03/04 04:22:08;;;;;;;26.83;4.05;;;;;;;;;;5032032;28;20032;-64
2022/03/04 04:24:34;;;;;;;22.08;4.47;;;;;;;;;;5045544;28;20031;-64
2022/03/04 04:27:00;;;;;;;23.00;5.32;;;;;;;;;;5041719;28;20042;-64
2022/03/04 04:29:27;;;;;;;18.25;3.55;;;;;;;;;;5046812;28;20025;-64
2022/03/04 04:31:53;;;;;;;28.05;5.97;;;;;;;;;;5043846;28;20543;-64
2022/03/04 04:34:19;;;;;;;28.02;4.20;;;;;;;;;;5052180;28;20120;-64
2022/03/04 04:36:45;;;;;;;21.60;3.25;;;;;;;;;;5052029;28;20054;-64
2022/03/04 04:39:11;;;;;;;20.45;3.42;;;;;;;;;;5052127;28;20033;-64
2022/03/04 04:41:37;;;;;;;31.55;3.92;;;;;;;;;;5034126;28;20053;-64
2022/03/04 04:44:04;;;;;;;15.57;3.50;;;;;;;;;;5031932;28;20497;-64
2022/03/04 04:46:30;;;;;;;31.77;7.03;;;;;;;;;;5031301;28;20393;-64
2022/03/04 04:48:56;;;;;;;19.25;4.18;;;;;;;;;;5035388;28;20037;-64
2022/03/04 04:51:22;;;;;;;24.27;4.65;;;;;;;;;;5046131;28;20021;-64
2022/03/04 04:53:50;;;;;;;20.95;3.70;;;;;;;;;;5055823;28;20055;-64
2022/03/04 04:56:16;;;;;;;24.02;3.60;;;;;;;;;;5048047;28;20029;-64
2022/03/04 04:58:42;;;;;;;27.08;4.90;;;;;;;;;;5046728;28;20405;-64
2022/03/04 05:01:08;;;;;;;21.88;3.85;;;;;;;;;;5041118;28;20025;-64
2022/03/04 05:03:34;;;;;;;24.08;4.20;;;;;;;;;;5041270;28;20465;-64
2022/03/04 05:06:01;;;;;;;18.08;3.17;;;;;;;;;;5035973;28;20378;-64
2022/03/04 05:08:27;;;;;;;37.80;6.30;;;;;;;;;;5035537;28;20031;-64
2022/03/04 05:10:54;;;;;;;26.40;3.72;;;;;;;;;;5035624;28;20432;-64
2022/03/04 05:13:20;;;;;;;19.27;4.47;;;;;;;;;;5035272;28;20497;-64
2022/03/04 05:15:46;;;;;;;23.27;3.30;;;;;;;;;;5040673;28;20521;-64
2022/03/04 05:18:13;;;;;;;26.75;4.47;;;;;;;;;;5042217;28;20030;-64
2022/03/04 05:20:39;;;;;;;23.92;3.70;;;;;;;;;;5035488;28;20026;-64
2022/03/04 05:23:05;;;;;;;23.10;4.05;;;;;;;;;;5035245;28;20075;-64
2022/03/04 05:25:31;;;;;;;25.98;4.05;;;;;;;;;;5035151;28;20478;-64
2022/03/04 05:27:57;;;;;;;19.02;3.72;;;;;;;;;;5035418;28;20024;-64
2022/03/04 05:30:23;;;;;;;33.25;5.07;;;;;;;;;;5052689;28;20032;-64
2022/03/04 05:32:49;;;;;;;17.88;3.35;;;;;;;;;;5054928;28;20025;-64
2022/03/04 05:35:15;;;;;;;24.30;4.10;;;;;;;;;;5054441;28;20028;-64
2022/03/04 05:37:42;;;;;;;21.67;3.88;;;;;;;;;;5054956;28;20079;-64
2022/03/04 05:40:08;;;;;;;22.95;4.30;;;;;;;;;;5054891;28;20044;-64
2022/03/04 05:42:34;;;;;;;20.70;3.80;;;;;;;;;;5054538;28;20032;-64
2022/03/04 05:45:01;;;;;;;32.28;4.78;;;;;;;;;;5054946;28;20029;-64
2022/03/04 05:47:27;;;;;;;27.40;3.97;;;;;;;;;;5054894;28;20021;-64
2022/03/04 05:49:53;;;;;;;16.45;3.58;;;;;;;;;;5053269;28;20105;-64
2022/03/04 05:52:19;;;;;;;20.48;3.85;;;;;;;;;;5042659;28;20367;-64
2022/03/04 05:54:45;;;;;;;24.58;4.03;;;;;;;;;;5034786;28;20087;-64
2022/03/04 05:57:11;;;;;;;20.58;3.58;;;;;;;;;;5044371;28;20041;-64
2022/03/04 05:59:38;;;;;;;26.27;4.53;;;;;;;;;;5034685;28;20037;-64
2022/03/04 06:02:04;;;;;;;25.80;4.00;;;;;;;;;;5039184;28;20116;-64
2022/03/04 06:04:30;;;;;;;27.98;4.15;;;;;;;;;;5045836;28;20018;-64
2022/03/04 06:06:56;;;;;;;21.65;4.38;;;;;;;;;;5044963;28;20049;-64
2022/03/04 06:09:27;;;;;;;19.98;3.50;;;;;;;;;;5044505;28;20528;-64
2022/03/04 06:11:54;;;;;;;26.02;4.05;;;;;;;;;;5044259;28;20637;-64
2022/03/04 06:14:20;;;;;;;20.15;4.20;;;;;;;;;;5045924;28;20029;-64
2022/03/04 06:16:47;;;;;;;26.83;3.67;;;;;;;;;;5041250;28;20142;-64
2022/03/04 06:19:13;;;;;;;12.15;3.13;;;;;;;;;;5045774;28;20090;-64
2022/03/04 06:21:39;;;;;;;26.98;4.07;;;;;;;;;;5045411;28;20036;-64
2022/03/04 06:24:05;;;;;;;22.50;3.53;;;;;;;;;;5046520;28;20154;-64
2022/03/04 06:26:32;;;;;;;26.58;3.53;;;;;;;;;;5037582;28;20013;-63
2022/03/04 06:28:59;;;;;;;25.30;3.92;;;;;;;;;;5035920;28;20025;-63
2022/03/04 06:31:25;;;;;;;21.10;3.13;;;;;;;;;;5032725;28;20489;-64
2022/03/04 06:33:51;;;;;;;40.78;10.63;;;;;;;;;;5047520;28;20045;-64
2022/03/04 06:36:17;;;;;;;58.90;23.23;;;;;;;;;;5040468;28;20031;-63
2022/03/04 06:38:45;;;;;;;56.00;17.58;;;;;;;;;;5042876;28;20108;-67
2022/03/04 06:41:12;;;;;;;55.03;15.75;;;;;;;;;;5045454;28;20037;-63
2022/03/04 06:43:39;;;;;;;29.02;4.63;;;;;;;;;;5049357;28;20114;-64
2022/03/04 06:46:06;;;;;;;35.03;13.07;;;;;;;;;;5045197;28;20025;-63
2022/03/04 06:48:33;;;;;;;48.70;15.25;;;;;;;;;;5036010;28;20036;-63
2022/03/04 06:50:59;;;;;;;29.70;8.93;;;;;;;;;;5034354;28;20026;-63
2022/03/04 06:53:25;;;;;;;21.60;5.50;;;;;;;;;;5034163;28;20544;-63
2022/03/04 06:55:52;;;;;;;27.33;5.53;;;;;;;;;;5033091;28;20152;-63
2022/03/04 06:58:18;;;;;;;16.80;4.03;;;;;;;;;;5033633;28;20044;-63
2022/03/04 07:00:44;;;;;;;26.33;5.13;;;;;;;;;;5033116;28;20041;-63
2022/03/04 07:03:11;;;;;;;42.53;11.73;;;;;;;;;;5035385;28;20037;-64
2022/03/04 07:09:08;;;;;;;36.60;8.80;;;;;;;;;;5034358;28;20385;-63
2022/03/04 07:11:34;;;;;;;40.72;9.02;;;;;;;;;;5032558;28;20485;-63
2022/03/04 07:14:00;;;;;;;49.67;15.32;;;;;;;;;;5050446;28;20037;-63
2022/03/04 07:16:26;;;;;;;48.35;17.83;;;;;;;;;;5053239;28;20029;-63
2022/03/04 07:18:53;;;;;;;68.75;24.27;;;;;;;;;;5037263;28;20036;-64
2022/03/04 07:21:19;;;;;;;128.35;40.00;;;;;;;;;;5033270;28;20033;-64
2022/03/04 07:23:45;;;;;;;37.30;10.95;;;;;;;;;;5032026;28;20072;-63
2022/03/04 07:26:12;;;;;;;36.92;11.07;;;;;;;;;;5041627;28;20388;-63
2022/03/04 07:28:38;;;;;;;72.63;25.20;;;;;;;;;;5045377;28;20083;-63
2022/03/04 07:31:05;;;;;;;68.68;25.45;;;;;;;;;;5051668;28;20033;-63
2022/03/04 07:33:33;;;;;;;116.28;38.33;;;;;;;;;;5051047;28;20056;-63
2022/03/04 07:36:01;;;;;;;110.30;34.88;;;;;;;;;;5047367;28;20467;-68
2022/03/04 07:38:27;;;;;;;116.65;44.15;;;;;;;;;;5041397;28;20037;-71
2022/03/04 07:40:53;;;;;;;30.23;8.82;;;;;;;;;;5035541;28;20061;-63
2022/03/04 07:43:22;;;;;;;23.60;5.40;;;;;;;;;;5034946;28;20087;-63
2022/03/04 07:45:48;;;;;;;21.15;6.28;;;;;;;;;;5044403;28;20041;-63
2022/03/04 07:48:14;;;;;;;38.72;9.18;;;;;;;;;;5052714;28;20017;-64
2022/03/04 07:50:40;;;;;;;25.25;10.20;;;;;;;;;;5040183;28;20028;-63
2022/03/04 07:53:06;;;;;;;17.67;5.30;;;;;;;;;;5034297;28;20603;-63
2022/03/04 07:55:32;;;;;;;20.73;4.38;;;;;;;;;;5042070;28;20405;-63
2022/03/04 07:57:59;;;;;;;18.63;4.60;;;;;;;;;;5043336;28;20413;-63
2022/03/04 08:00:26;;;;;;;21.08;3.75;;;;;;;;;;5038767;28;20036;-63
2022/03/04 08:02:53;;;;;;;25.25;4.97;;;;;;;;;;5042526;28;20037;-63
2022/03/04 08:05:19;;;;;;;23.70;4.32;;;;;;;;;;5042496;28;20021;-63
2022/03/04 08:07:46;;;;;;;17.27;4.47;;;;;;;;;;5051060;28;20078;-63
2022/03/04 08:10:13;;;;;;;25.55;4.53;;;;;;;;;;5046844;28;20440;-63
2022/03/04 08:12:40;;;;;;;21.42;4.28;;;;;;;;;;5045322;28;20059;-63
2022/03/04 08:15:07;;;;;;;20.40;3.72;;;;;;;;;;5045713;28;20352;-63
2022/03/04 08:17:33;;;;;;;16.35;3.90;;;;;;;;;;5034926;28;20029;-63
2022/03/04 08:19:59;;;;;;;26.85;5.40;;;;;;;;;;5047209;28;20024;-64
2022/03/04 08:22:25;;;;;;;17.30;4.07;;;;;;;;;;5041029;28;20026;-63
2022/03/04 08:24:52;;;;;;;21.73;4.32;;;;;;;;;;5043382;28;20107;-64
2022/03/04 08:27:18;;;;;;;13.13;3.05;;;;;;;;;;5036225;28;20644;-63
2022/03/04 08:29:44;;;;;;;24.20;4.38;;;;;;;;;;5037146;28;20029;-63
2022/03/04 08:32:10;;;;;;;25.95;9.15;;;;;;;;;;5037885;28;20027;-63
2022/03/04 08:34:37;;;;;;;25.35;5.30;;;;;;;;;;5042212;28;20040;-64
2022/03/04 08:37:03;;;;;;;26.10;5.82;;;;;;;;;;5031986;28;20042;-63
2022/03/04 08:39:29;;;;;;;39.70;12.48;;;;;;;;;;5043519;28;20107;-63
2022/03/04 08:41:56;;;;;;;29.55;8.30;;;;;;;;;;5035443;28;20047;-63
2022/03/04 08:44:22;;;;;;;23.05;3.55;;;;;;;;;;5042545;28;20080;-63
2022/03/04 08:46:48;;;;;;;52.28;20.40;;;;;;;;;;5039668;28;20035;-64
2022/03/04 08:49:14;;;;;;;24.13;3.83;;;;;;;;;;5035007;28;20041;-63
2022/03/04 08:51:41;;;;;;;22.55;4.10;;;;;;;;;;5034893;28;20133;-63
2022/03/04 08:54:07;;;;;;;14.20;2.97;;;;;;;;;;5042577;28;20039;-63
2022/03/04 08:56:34;;;;;;;19.02;4.03;;;;;;;;;;5036768;28;20033;-64
2022/03/04 08:59:00;;;;;;;22.10;3.92;;;;;;;;;;5036709;28;20108;-63
2022/03/04 09:01:26;;;;;;;15.30;3.63;;;;;;;;;;5035646;28;20033;-64
2022/03/04 09:03:52;;;;;;;20.63;3.95;;;;;;;;;;5039061;28;20107;-64
2022/03/04 09:06:18;;;;;;;21.23;4.30;;;;;;;;;;5040705;28;20020;-63
2022/03/04 09:08:45;;;;;;;19.63;5.93;;;;;;;;;;5034467;28;20040;-64
2022/03/04 09:11:11;;;;;;;32.63;4.80;;;;;;;;;;5035170;28;20125;-63
2022/03/04 09:13:38;;;;;;;22.65;3.65;;;;;;;;;;5041493;28;20068;-64
2022/03/04 09:16:04;;;;;;;20.13;3.85;;;;;;;;;;5046061;28;20033;-64
2022/03/04 09:18:31;;;;;;;18.45;3.58;;;;;;;;;;5039435;28;20027;-63
2022/03/04 09:20:57;;;;;;;12.32;3.28;;;;;;;;;;5049728;28;20029;-64
2022/03/04 09:23:23;;;;;;;16.50;3.50;;;;;;;;;;5043824;28;20028;-64
2022/03/04 09:25:51;;;;;;;17.05;5.70;;;;;;;;;;5039678;28;20027;-64
2022/03/04 09:28:18;;;;;;;18.67;5.18;;;;;;;;;;5034261;28;20026;-64
2022/03/04 09:30:44;;;;;;;15.50;4.50;;;;;;;;;;5043818;28;20033;-64
2022/03/04 09:33:10;;;;;;;24.13;5.15;;;;;;;;;;5041779;28;20037;-64
2022/03/04 09:35:37;;;;;;;16.25;2.97;;;;;;;;;;5043217;28;20060;-64
2022/03/04 09:38:03;;;;;;;15.73;2.72;;;;;;;;;;5042567;28;20029;-64
2022/03/04 09:40:32;;;;;;;15.73;4.00;;;;;;;;;;5048462;28;20049;-64
2022/03/04 09:42:58;;;;;;;17.88;4.45;;;;;;;;;;5046886;28;20033;-64
2022/03/04 09:45:25;;;;;;;14.13;2.97;;;;;;;;;;5046834;28;20040;-64
2022/03/04 09:47:51;;;;;;;16.95;4.95;;;;;;;;;;5040336;28;20029;-64
2022/03/04 09:50:18;;;;;;;14.48;2.65;;;;;;;;;;5038699;28;20508;-63
2022/03/04 09:52:46;;;;;;;14.60;2.70;;;;;;;;;;5045637;28;20552;-64
2022/03/04 09:55:13;;;;;;;16.65;2.50;;;;;;;;;;5046595;28;20035;-64
2022/03/04 09:57:40;;;;;;;16.63;3.53;;;;;;;;;;5040872;28;20056;-64
2022/03/04 10:00:07;;;;;;;16.23;2.65;;;;;;;;;;5046566;28;20031;-64
2022/03/04 10:02:39;;;;;;;14.82;3.58;;;;;;;;;;5039321;28;20440;-64
2022/03/04 10:05:05;;;;;;;15.38;2.45;;;;;;;;;;5043935;28;20059;-63
2022/03/04 10:07:39;;;;;;;34.63;5.88;;;;;;;;;;5042550;28;20036;-63
2022/03/04 10:10:09;;;;;;;18.23;3.13;;;;;;;;;;5046994;28;20033;-63
2022/03/04 10:12:46;;;;;;;15.10;3.80;;;;;;;;;;5043129;28;20057;-63
2022/03/04 10:15:12;;;;;;;8.45;2.45;;;;;;;;;;5051164;28;20039;-63
2022/03/04 10:17:38;;;;;;;23.45;3.03;;;;;;;;;;5039817;28;20746;-63
2022/03/04 10:20:09;;;;;;;10.85;2.20;;;;;;;;;;5039249;28;20021;-63
2022/03/04 10:22:37;;;;;;;13.35;2.80;;;;;;;;;;5038491;28;20037;-63
2022/03/04 10:25:33;;;;;;;42.60;16.63;;;;;;;;;;5045489;28;20489;-63
2022/03/04 10:28:08;;;;;;;17.98;4.00;;;;;;;;;;5031673;28;20037;-63
2022/03/04 10:30:34;;;;;;;13.02;3.05;;;;;;;;;;5045077;28;20404;-63
2022/03/04 10:33:10;;;;;;;18.77;5.68;;;;;;;;;;5046894;28;20033;-63
2022/03/04 10:35:37;;;;;;;14.95;2.78;;;;;;;;;;5043253;28;20055;-63
2022/03/04 10:38:05;;;;;;;13.63;3.38;;;;;;;;;;5039185;28;20017;-63
2022/03/04 10:40:32;;;;;;;13.43;3.35;;;;;;;;;;5043115;28;20056;-63
2022/03/04 10:43:02;;;;;;;17.98;4.15;;;;;;;;;;5040876;28;20029;-63
2022/03/04 10:45:36;;;;;;;20.90;3.03;;;;;;;;;;5040422;28;20080;-63
2022/03/04 10:48:02;;;;;;;16.63;4.35;;;;;;;;;;5043609;28;20382;-63
2022/03/04 10:50:35;;;;;;;8.45;3.28;;;;;;;;;;5042903;28;20443;-63
2022/03/04 10:53:11;;;;;;;16.73;4.72;;;;;;;;;;5039987;28;20434;-63
2022/03/04 10:55:44;;;;;;;12.73;2.47;;;;;;;;;;5050276;28;20048;-63
2022/03/04 10:58:30;;;;;;;37.47;11.93;;;;;;;;;;5038224;28;20028;-63
2022/03/04 11:00:56;;;;;;;55.88;18.35;;;;;;;;;;5039685;28;20116;-63
2022/03/04 11:03:23;;;;;;;16.33;3.50;;;;;;;;;;5038469;28;20037;-63
2022/03/04 11:05:51;;;;;;;41.72;14.05;;;;;;;;;;5035918;28;20040;-63
2022/03/04 11:08:18;;;;;;;13.85;3.22;;;;;;;;;;5043614;28;20104;-63
2022/03/04 11:10:44;;;;;;;12.23;4.35;;;;;;;;;;5037553;28;20044;-63
2022/03/04 11:13:11;;;;;;;12.57;3.05;;;;;;;;;;5036603;28;20570;-63
2022/03/04 11:15:39;;;;;;;12.38;2.38;;;;;;;;;;5042709;28;20041;-63
2022/03/04 11:18:06;;;;;;;10.23;2.50;;;;;;;;;;5049044;28;20033;-63
2022/03/04 11:20:32;;;;;;;11.63;2.38;;;;;;;;;;5035444;28;20021;-63
2022/03/04 11:22:59;;;;;;;12.27;2.60;;;;;;;;;;5041195;28;20049;-63
2022/03/04 11:25:25;;;;;;;12.82;3.10;;;;;;;;;;5046460;28;20036;-63
2022/03/04 11:27:52;;;;;;;9.98;2.20;;;;;;;;;;5039000;28;20670;-63
2022/03/04 11:30:30;;;;;;;9.70;2.97;;;;;;;;;;5037700;28;20021;-63
2022/03/04 11:33:01;;;;;;;16.20;4.43;;;;;;;;;;5036396;28;20059;-63
2022/03/04 11:35:35;;;;;;;17.88;3.03;;;;;;;;;;5040064;28;20387;-63
2022/03/04 11:38:01;;;;;;;10.57;1.75;;;;;;;;;;5044847;28;20432;-63
2022/03/04 11:40:33;;;;;;;22.13;7.47;;;;;;;;;;5048113;28;20029;-63
2022/03/04 11:42:59;;;;;;;41.93;16.40;;;;;;;;;;5037541;28;20102;-63
2022/03/04 11:45:32;;;;;;;29.80;9.50;;;;;;;;;;5047353;28;20275;-63
2022/03/04 11:47:58;;;;;;;;;;;;;;;;;;5033346;28;20044;-63
2022/03/04 11:50:34;;;;;;;26.52;8.18;;;;;;;;;;5046761;28;19917;-66
2022/03/04 11:53:11;;;;;;;15.75;2.80;;;;;;;;;;5039473;28;20029;-63
2022/03/04 11:55:37;;;;;;;18.15;2.90;;;;;;;;;;5037207;28;20033;-63
2022/03/04 11:58:05;;;;;;;16.55;2.83;;;;;;;;;;5040244;28;20026;-63
2022/03/04 12:00:33;;;;;;;21.58;3.60;;;;;;;;;;5045251;28;20041;-63
2022/03/04 12:03:00;;;;;;;9.20;1.90;;;;;;;;;;5040327;28;20034;-63
2022/03/04 12:05:32;;;;;;;10.57;2.45;;;;;;;;;;5041875;28;20505;-63
2022/03/04 12:08:00;;;;;;;11.10;2.20;;;;;;;;;;5031768;28;20453;-64
2022/03/04 12:10:40;;;;;;;12.25;2.63;;;;;;;;;;5035421;28;20390;-64
2022/03/04 12:13:07;;;;;;;8.30;1.92;;;;;;;;;;5034338;28;20091;-63
2022/03/04 12:15:37;;;;;;;10.13;1.92;;;;;;;;;;5048793;28;20401;-63
2022/03/04 12:18:10;;;;;;;12.98;2.25;;;;;;;;;;5051240;28;20036;-63
2022/03/04 12:20:38;;;;;;;9.27;2.35;;;;;;;;;;5038774;28;20052;-63
2022/03/04 12:23:09;;;;;;;8.88;2.30;;;;;;;;;;5030867;28;20060;-63
2022/03/04 12:25:54;;;;;;;9.60;2.03;;;;;;;;;;5036207;28;20060;-63
2022/03/04 12:28:20;;;;;;;9.32;1.92;;;;;;;;;;5042631;28;20029;-63
2022/03/04 12:30:47;;;;;;;7.47;2.65;;;;;;;;;;5047746;28;20070;-64
2022/03/04 12:33:15;;;;;;;7.40;2.00;;;;;;;;;;5041883;28;20103;-63
2022/03/04 12:35:42;;;;;;;7.20;1.90;;;;;;;;;;5039453;28;20025;-63
2022/03/04 12:38:09;;;;;;;17.27;3.00;;;;;;;;;;5040442;28;20033;-63
2022/03/04 12:40:37;;;;;;;12.60;2.85;;;;;;;;;;5037887;28;20024;-63
2022/03/04 12:43:06;;;;;;;13.77;2.90;;;;;;;;;;5047733;28;20120;-63
2022/03/04 12:45:32;;;;;;;9.05;2.30;;;;;;;;;;5044904;28;20102;-63
2022/03/04 12:47:59;;;;;;;11.82;3.25;;;;;;;;;;5039433;28;20033;-63
2022/03/04 12:50:29;;;;;;;13.32;2.20;;;;;;;;;;5050856;28;20442;-63
2022/03/04 12:52:56;;;;;;;21.23;2.75;;;;;;;;;;5050350;28;20036;-63
2022/03/04 12:55:22;;;;;;;6.85;2.70;;;;;;;;;;5047711;28;20484;-63
2022/03/04 12:57:51;;;;;;;12.68;2.92;;;;;;;;;;5042728;28;20021;-63
2022/03/04 13:00:17;;;;;;;10.63;2.45;;;;;;;;;;5045107;28;20029;-63
2022/03/04 13:02:45;;;;;;;7.85;1.90;;;;;;;;;;5045372;28;20056;-63
2022/03/04 13:05:11;;;;;;;16.77;5.10;;;;;;;;;;5047717;28;20025;-63
2022/03/04 13:07:37;;;;;;;11.73;2.88;;;;;;;;;;5039664;28;20428;-63
2022/03/04 13:10:07;;;;;;;12.38;2.97;;;;;;;;;;5054561;28;20074;-63
2022/03/04 13:12:34;;;;;;;14.18;4.97;;;;;;;;;;5042216;28;20402;-63
2022/03/04 13:15:10;;;;;;;15.20;5.00;;;;;;;;;;5050247;28;20036;-63
2022/03/04 13:17:36;;;;;;;29.42;6.57;;;;;;;;;;5039473;28;20489;-63
2022/03/04 13:20:09;;;;;;;18.60;6.53;;;;;;;;;;5054482;28;20032;-63
2022/03/04 13:22:35;;;;;;;15.32;3.05;;;;;;;;;;5042545;28;20481;-63
2022/03/04 13:25:01;;;;;;;12.70;2.40;;;;;;;;;;5050971;28;20097;-63
2022/03/04 13:27:38;;;;;;;11.32;2.10;;;;;;;;;;5050886;28;20410;-63
2022/03/04 13:30:04;;;;;;;15.23;2.55;;;;;;;;;;5048058;28;20112;-63
2022/03/04 13:32:31;;;;;;;15.20;2.70;;;;;;;;;;5038895;28;20489;-63
2022/03/04 13:34:57;;;;;;;9.13;2.00;;;;;;;;;;5039539;28;20488;-63
2022/03/04 13:37:24;;;;;;;16.42;3.03;;;;;;;;;;5045502;28;20450;-63
2022/03/04 13:40:09;;;;;;;14.60;4.10;;;;;;;;;;5042261;28;21790;-63
2022/03/04 13:42:43;;;;;;;13.93;2.85;;;;;;;;;;5045325;28;20052;-63
2022/03/04 13:45:13;;;;;;;18.60;4.68;;;;;;;;;;5041441;28;20041;-63
2022/03/04 13:47:39;;;;;;;7.55;2.25;;;;;;;;;;5033411;28;20371;-63
2022/03/04 13:50:17;;;;;;;11.05;2.10;;;;;;;;;;5050366;28;20021;-62
2022/03/04 13:52:47;;;;;;;19.25;2.75;;;;;;;;;;5034429;28;20108;-63
2022/03/04 13:55:13;;;;;;;18.65;3.60;;;;;;;;;;5037592;28;20029;-63
2022/03/04 13:57:40;;;;;;;9.63;2.70;;;;;;;;;;5037473;28;20022;-62
2022/03/04 14:00:11;;;;;;;19.02;3.78;;;;;;;;;;5044542;28;20049;-62
2022/03/04 14:02:41;;;;;;;19.33;5.70;;;;;;;;;;5044615;28;20052;-63
2022/03/04 14:05:07;;;;;;;24.17;8.52;;;;;;;;;;5050471;28;20059;-62
2022/03/04 14:07:44;;;;;;;13.95;3.55;;;;;;;;;;5047151;28;20033;-62
2022/03/04 14:10:14;;;;;;;18.33;5.88;;;;;;;;;;5044636;28;20034;-62
2022/03/04 14:12:40;;;;;;;13.70;5.15;;;;;;;;;;5041440;28;20045;-62
2022/03/04 14:15:07;;;;;;;18.15;5.00;;;;;;;;;;5048692;28;20445;-62
2022/03/04 14:17:44;;;;;;;20.13;4.13;;;;;;;;;;5035573;28;20029;-62
2022/03/04 14:20:10;;;;;;;10.68;2.08;;;;;;;;;;5044123;28;20557;-62
2022/03/04 14:22:36;;;;;;;10.25;2.15;;;;;;;;;;5044707;28;20019;-62
2022/03/04 14:25:03;;;;;;;10.00;1.88;;;;;;;;;;5046071;28;20488;-62
2022/03/04 14:27:29;;;;;;;7.22;2.20;;;;;;;;;;5036451;28;20040;-62
2022/03/04 14:29:55;;;;;;;5.47;1.40;;;;;;;;;;5053519;28;20373;-62
2022/03/04 14:32:21;;;;;;;10.30;2.17;;;;;;;;;;5033190;28;20108;-62
2022/03/04 14:34:47;;;;;;;8.18;1.33;;;;;;;;;;5045557;28;20056;-62